createdAt,value
2022-09-12T00:01:13.791Z,11.73
2022-09-12T00:03:44.001Z,12.35
2022-09-12T00:06:20.420Z,11.68
2022-09-12T00:08:52.119Z,12.30
2022-09-12T00:11:21.729Z,11.93
2022-09-12T00:13:54.587Z,12.07
2022-09-12T00:16:26.557Z,12.70
2022-09-12T00:18:56.429Z,11.73
2022-09-12T00:21:26.403Z,11.32
2022-09-12T00:23:56.718Z,11.77
2022-09-12T00:26:26.341Z,11.02
2022-09-12T00:28:58.940Z,9.98
2022-09-12T00:31:30.183Z,11.82
2022-09-12T00:34:02.685Z,10.48
2022-09-12T00:36:33.360Z,12.25
2022-09-12T00:39:03.660Z,11.70
2022-09-12T00:41:35.920Z,11.95
2022-09-12T00:44:35.329Z,11.18
2022-09-12T00:47:13.462Z,11.00
2022-09-12T00:49:48.636Z,11.35
2022-09-12T00:52:21.813Z,10.93
2022-09-12T00:54:56.815Z,11.77
2022-09-12T00:57:32.386Z,11.43
2022-09-12T01:00:07.454Z,11.25
2022-09-12T01:02:39.800Z,11.88
2022-09-12T01:05:10.904Z,10.45
2022-09-12T01:07:41.251Z,11.88
2022-09-12T01:10:12.511Z,11.90
2022-09-12T01:12:45.045Z,11.07
2022-09-12T01:15:15.394Z,11.13
2022-09-12T01:17:57.622Z,12.88
2022-09-12T01:20:47.922Z,12.88
2022-09-12T01:23:47.626Z,9.90
2022-09-12T01:26:38.449Z,11.85
2022-09-12T01:29:25.401Z,11.88
2022-09-12T01:32:08.125Z,11.18
2022-09-12T01:34:47.531Z,10.48
2022-09-12T01:37:22.534Z,11.52
2022-09-12T01:40:01.473Z,10.75
2022-09-12T01:42:37.073Z,12.55
2022-09-12T01:45:14.882Z,11.55
2022-09-12T01:47:52.810Z,11.90
2022-09-12T01:50:25.744Z,12.65
2022-09-12T01:52:59.958Z,13.15
2022-09-12T01:55:34.142Z,12.75
2022-09-12T01:58:08.628Z,13.35
2022-09-12T02:00:45.358Z,12.10
2022-09-12T02:03:21.871Z,13.75
2022-09-12T02:05:57.587Z,14.15
2022-09-12T02:08:32.049Z,14.35
2022-09-12T02:11:07.386Z,13.05
2022-09-12T02:13:40.892Z,13.18
2022-09-12T02:16:13.451Z,13.77
2022-09-12T02:18:49.935Z,14.75
2022-09-12T02:21:22.280Z,13.48
2022-09-12T02:23:59.741Z,14.45
2022-09-12T02:26:34.096Z,13.88
2022-09-12T02:29:03.944Z,12.68
2022-09-12T02:31:39.640Z,15.07
2022-09-12T02:34:29.678Z,13.07
2022-09-12T02:37:08.606Z,12.95
2022-09-12T02:39:42.101Z,13.80
2022-09-12T02:42:14.842Z,13.13
2022-09-12T02:44:45.518Z,13.75
2022-09-12T02:47:21.990Z,13.98
2022-09-12T02:49:55.390Z,12.85
2022-09-12T02:52:25.481Z,15.18
2022-09-12T02:54:55.420Z,14.48
2022-09-12T02:57:25.238Z,14.73
2022-09-12T02:59:58.502Z,14.57
2022-09-12T03:02:34.767Z,15.55
2022-09-12T03:05:29.702Z,14.27
2022-09-12T03:08:37.350Z,14.07
2022-09-12T03:11:28.436Z,14.13
2022-09-12T03:14:09.383Z,13.50
2022-09-12T03:16:47.766Z,15.90
2022-09-12T03:19:25.571Z,14.65
2022-09-12T03:22:08.311Z,13.25
2022-09-12T03:24:41.422Z,12.32
2022-09-12T03:27:19.717Z,14.20
2022-09-12T03:29:51.510Z,13.40
2022-09-12T03:32:21.083Z,14.50
2022-09-12T03:34:50.694Z,13.30
2022-09-12T03:37:22.944Z,13.95
2022-09-12T03:39:52.496Z,14.50
2022-09-12T03:42:22.181Z,13.95
2022-09-12T03:44:51.812Z,13.43
2022-09-12T03:47:21.379Z,15.07
2022-09-12T03:49:52.575Z,13.32
2022-09-12T03:52:25.429Z,11.95
2022-09-12T03:54:55.777Z,15.15
2022-09-12T03:57:25.475Z,15.15
2022-09-12T03:59:55.253Z,14.02
2022-09-12T04:02:25.498Z,13.75
2022-09-12T04:04:55.374Z,13.93
2022-09-12T04:07:27.526Z,13.98
2022-09-12T04:09:57.097Z,14.48
2022-09-12T04:12:26.625Z,14.32
2022-09-12T04:14:56.728Z,14.55
2022-09-12T04:17:26.359Z,14.68
2022-09-12T04:19:56.659Z,14.90
2022-09-12T04:22:30.019Z,13.45
2022-09-12T04:25:00.284Z,14.32
2022-09-12T04:27:31.084Z,14.27
2022-09-12T04:30:02.275Z,12.57
2022-09-12T04:32:33.631Z,13.02
2022-09-12T04:35:03.290Z,14.68
2022-09-12T04:37:35.594Z,13.90
2022-09-12T04:40:06.102Z,13.75
2022-09-12T04:42:35.746Z,14.60
2022-09-12T04:45:06.389Z,12.85
2022-09-12T04:47:35.968Z,14.63
2022-09-12T04:50:05.802Z,13.45
2022-09-12T04:52:37.948Z,14.20
2022-09-12T04:55:08.694Z,14.32
2022-09-12T04:57:38.790Z,12.85
2022-09-12T05:00:13.763Z,13.80
2022-09-12T05:02:43.516Z,14.35
2022-09-12T05:05:13.689Z,12.82
2022-09-12T05:07:45.961Z,14.27
2022-09-12T05:10:15.833Z,13.68
2022-09-12T05:12:45.508Z,15.40
2022-09-12T05:15:15.194Z,16.02
2022-09-12T05:17:44.935Z,14.60
2022-09-12T05:20:15.386Z,14.85
2022-09-12T05:22:47.614Z,16.13
2022-09-12T05:25:17.345Z,14.18
2022-09-12T05:27:50.463Z,14.77
2022-09-12T05:30:20.587Z,15.95
2022-09-12T05:32:50.242Z,15.27
2022-09-12T05:35:20.147Z,15.55
2022-09-12T05:37:52.658Z,15.63
2022-09-12T05:40:22.414Z,16.30
2022-09-12T05:42:52.125Z,15.10
2022-09-12T05:45:21.758Z,16.17
2022-09-12T05:47:51.609Z,16.60
2022-09-12T05:50:21.383Z,17.20
2022-09-12T05:52:55.532Z,16.50
2022-09-12T05:55:26.853Z,18.00
2022-09-12T05:57:56.686Z,16.63
2022-09-12T06:00:29.302Z,17.55
2022-09-12T06:03:01.579Z,17.25
2022-09-12T06:05:33.277Z,16.65
2022-09-12T06:08:05.872Z,17.27
2022-09-12T06:10:35.440Z,19.60
2022-09-12T06:13:05.138Z,17.20
2022-09-12T06:15:35.625Z,18.65
2022-09-12T06:18:05.491Z,22.33
2022-09-12T06:20:35.758Z,22.10
2022-09-12T06:23:08.012Z,18.85
2022-09-12T06:25:37.542Z,19.95
2022-09-12T06:28:08.532Z,20.55
2022-09-12T06:30:38.149Z,18.92
2022-09-12T06:33:07.779Z,21.80
2022-09-12T06:35:39.208Z,19.90
2022-09-12T06:38:11.781Z,20.55
2022-09-12T06:40:45.208Z,21.02
2022-09-12T06:43:16.527Z,22.45
2022-09-12T06:45:52.329Z,21.77
2022-09-12T06:48:22.043Z,23.33
2022-09-12T06:51:00.270Z,20.52
2022-09-12T06:53:33.728Z,20.30
2022-09-12T06:56:05.107Z,20.45
2022-09-12T06:58:35.039Z,22.48
2022-09-12T07:01:06.064Z,21.40
2022-09-12T07:03:36.292Z,20.42
2022-09-12T07:06:07.311Z,21.35
2022-09-12T07:08:41.130Z,20.63
2022-09-12T07:11:15.725Z,21.00
2022-09-12T07:13:47.219Z,21.60
2022-09-12T07:16:19.964Z,20.60
2022-09-12T07:18:54.074Z,20.73
2022-09-12T07:21:24.207Z,19.35
2022-09-12T07:23:58.043Z,21.50
2022-09-12T07:26:29.918Z,19.08
2022-09-12T07:29:25.224Z,19.88
2022-09-12T07:31:51.307Z,18.70
2022-09-12T07:34:20.969Z,18.42
2022-09-12T07:36:50.476Z,18.88
2022-09-12T07:39:23.106Z,17.52
2022-09-12T07:41:52.653Z,18.60
2022-09-12T07:44:23.042Z,17.27
2022-09-12T07:46:53.274Z,18.15
2022-09-12T07:49:22.931Z,17.50
2022-09-12T07:51:53.292Z,17.83
2022-09-12T07:54:26.806Z,18.77
2022-09-12T07:59:50.787Z,18.20
2022-09-12T08:02:17.774Z,17.02
2022-09-12T08:04:48.395Z,17.30
2022-09-12T08:07:19.279Z,17.83
2022-09-12T08:09:53.592Z,17.27
2022-09-12T08:12:23.186Z,16.52
2022-09-12T08:14:52.827Z,16.33
2022-09-12T08:17:22.562Z,14.95
2022-09-12T08:19:52.725Z,16.05
2022-09-12T08:22:23.033Z,13.50
2022-09-12T08:24:55.600Z,12.43
2022-09-12T08:27:25.474Z,10.50
2022-09-12T08:29:55.683Z,11.10
2022-09-12T08:32:25.649Z,11.20
2022-09-12T08:34:55.582Z,12.15
2022-09-12T08:37:25.789Z,10.35
2022-09-12T08:39:58.244Z,10.38
2022-09-12T08:42:49.378Z,11.37
2022-09-12T08:45:25.476Z,9.45
2022-09-12T08:47:55.919Z,9.00
2022-09-12T08:50:26.029Z,9.05
2022-09-12T08:52:59.799Z,8.23
2022-09-12T08:55:44.031Z,8.57
2022-09-12T08:58:17.457Z,7.60
2022-09-12T09:03:51.106Z,9.20
2022-09-12T09:06:35.222Z,7.63
2022-09-12T09:09:13.015Z,7.72
2022-09-12T09:11:59.142Z,8.73
2022-09-12T09:14:53.569Z,7.63
2022-09-12T09:17:29.295Z,7.85
2022-09-12T09:20:06.098Z,6.88
2022-09-12T09:22:39.394Z,6.95
2022-09-12T09:27:48.739Z,7.18
2022-09-12T09:30:23.620Z,7.13
2022-09-12T09:32:55.700Z,5.30
2022-09-12T09:35:36.621Z,5.93
2022-09-12T09:38:20.345Z,5.70
2022-09-12T09:40:58.935Z,5.32
2022-09-12T09:43:31.398Z,5.78
2022-09-12T09:46:01.827Z,5.83
2022-09-12T09:48:34.564Z,5.68
2022-09-12T09:51:07.224Z,4.75
2022-09-12T09:53:41.549Z,5.65
2022-09-12T09:56:21.496Z,5.18
2022-09-12T09:58:55.673Z,5.20
2022-09-12T10:01:25.366Z,4.93
2022-09-12T10:03:56.568Z,5.10
2022-09-12T10:06:30.955Z,4.78
2022-09-12T10:09:25.649Z,4.60
2022-09-12T10:11:56.995Z,3.85
2022-09-12T10:14:44.102Z,4.80
2022-09-12T10:17:34.355Z,4.60
2022-09-12T10:20:20.555Z,4.53
2022-09-12T10:22:52.055Z,4.90
2022-09-12T10:25:23.097Z,4.72
2022-09-12T10:27:59.075Z,4.55
2022-09-12T10:30:31.655Z,4.25
2022-09-12T10:33:11.397Z,5.10
2022-09-12T10:35:51.352Z,4.50
2022-09-12T10:38:26.740Z,5.07
2022-09-12T10:41:04.337Z,4.53
2022-09-12T10:43:38.692Z,5.78
2022-09-12T10:46:34.637Z,5.65
2022-09-12T10:49:38.221Z,4.95
2022-09-12T10:52:23.917Z,5.65
2022-09-12T10:54:53.881Z,4.93
2022-09-12T10:57:53.451Z,4.75
2022-09-12T11:00:28.091Z,5.85
2022-09-12T11:03:13.466Z,5.95
2022-09-12T11:05:55.536Z,5.32
2022-09-12T11:08:53.518Z,4.75
2022-09-12T11:11:42.703Z,5.43
2022-09-12T11:14:42.685Z,5.72
2022-09-12T11:17:26.207Z,5.13
2022-09-12T11:22:55.871Z,5.32
2022-09-12T11:25:34.717Z,5.03
2022-09-12T11:28:26.570Z,5.53
2022-09-12T11:31:14.417Z,4.20
2022-09-12T11:33:46.816Z,4.35
2022-09-12T11:36:32.693Z,4.53
2022-09-12T11:39:10.475Z,3.78
2022-09-12T11:41:44.180Z,4.75
2022-09-12T11:44:22.029Z,4.50
2022-09-12T11:46:52.431Z,4.03
2022-09-12T11:49:32.437Z,4.75
2022-09-12T11:52:17.294Z,4.43
2022-09-12T11:54:53.891Z,4.03
2022-09-12T11:57:32.018Z,4.43
2022-09-12T12:00:08.131Z,4.22
2022-09-12T12:02:45.471Z,4.35
2022-09-12T12:05:24.965Z,4.47
2022-09-12T12:07:59.279Z,4.35
2022-09-12T12:10:37.522Z,4.18
2022-09-12T12:13:14.096Z,4.60
2022-09-12T12:15:50.135Z,4.78
2022-09-12T12:18:23.168Z,4.63
2022-09-12T12:20:53.917Z,4.43
2022-09-12T12:23:34.934Z,4.57
2022-09-12T12:26:06.426Z,4.72
2022-09-12T12:29:03.021Z,5.00
2022-09-12T12:31:32.711Z,5.25
2022-09-12T12:34:28.820Z,4.07
2022-09-12T12:36:59.216Z,4.35
2022-09-12T12:40:05.902Z,4.35
2022-09-12T12:43:07.637Z,4.60
2022-09-12T12:46:14.579Z,4.80
2022-09-12T12:48:58.321Z,4.78
2022-09-12T12:51:51.400Z,4.55
2022-09-12T12:54:33.298Z,5.72
2022-09-12T12:57:09.303Z,4.57
2022-09-12T12:59:50.150Z,4.80
2022-09-12T13:02:25.385Z,5.18
2022-09-12T13:04:56.630Z,5.05
2022-09-12T13:07:32.854Z,4.85
2022-09-12T13:10:04.010Z,4.70
2022-09-12T13:12:36.841Z,4.72
2022-09-12T13:15:50.649Z,4.63
2022-09-12T13:18:26.322Z,5.68
2022-09-12T13:21:01.862Z,5.55
2022-09-12T13:23:35.358Z,4.90
2022-09-12T13:26:05.655Z,4.45
2022-09-12T13:31:18.928Z,4.97
2022-09-12T13:33:51.407Z,4.85
2022-09-12T13:36:37.130Z,4.90
2022-09-12T13:39:17.758Z,4.10
2022-09-12T13:42:13.180Z,3.72
2022-09-12T13:44:47.525Z,5.25
2022-09-12T13:47:31.038Z,4.15
2022-09-12T13:50:01.534Z,4.88
2022-09-12T13:52:34.559Z,4.82
2022-09-12T13:55:09.092Z,4.60
2022-09-12T13:57:41.494Z,5.72
2022-09-12T14:00:20.115Z,4.15
2022-09-12T14:03:13.479Z,4.85
2022-09-12T14:05:44.719Z,4.57
2022-09-12T14:08:16.979Z,4.82
2022-09-12T14:10:50.554Z,3.80
2022-09-12T14:13:23.496Z,4.38
2022-09-12T14:15:55.312Z,3.80
2022-09-12T14:18:29.461Z,3.90
2022-09-12T14:21:01.389Z,4.00
2022-09-12T14:23:33.498Z,4.10
2022-09-12T14:26:08.373Z,3.53
2022-09-12T14:28:38.643Z,4.03
2022-09-12T14:31:10.627Z,3.60
2022-09-12T14:33:53.689Z,3.88
2022-09-12T14:36:27.403Z,3.92
2022-09-12T14:39:01.781Z,3.58
2022-09-12T14:41:34.167Z,3.72
2022-09-12T14:44:08.416Z,3.85
2022-09-12T14:46:39.789Z,4.32
2022-09-12T14:49:18.821Z,3.88
2022-09-12T14:51:57.578Z,3.40
2022-09-12T14:54:42.931Z,3.47
2022-09-12T14:57:35.251Z,3.60
2022-09-12T15:00:22.461Z,3.60
2022-09-12T15:02:52.807Z,4.32
2022-09-12T15:05:30.502Z,3.72
2022-09-12T15:08:02.351Z,4.47
2022-09-12T15:10:34.420Z,3.95
2022-09-12T15:13:20.113Z,4.00
2022-09-12T15:15:51.911Z,3.90
2022-09-12T15:18:22.655Z,4.30
2022-09-12T15:20:58.040Z,3.63
2022-09-12T15:23:35.877Z,3.88
2022-09-12T15:26:06.691Z,5.05
2022-09-12T15:28:36.915Z,4.55
2022-09-12T15:31:11.512Z,4.68
2022-09-12T15:33:41.137Z,4.63
2022-09-12T15:36:19.556Z,5.00
2022-09-12T15:38:50.917Z,7.32
2022-09-12T15:41:22.518Z,4.93
2022-09-12T15:43:52.793Z,4.78
2022-09-12T15:46:22.846Z,4.25
2022-09-12T15:48:52.916Z,4.13
2022-09-12T15:51:25.696Z,4.55
2022-09-12T15:53:55.503Z,3.95
2022-09-12T15:56:25.473Z,4.60
2022-09-12T15:58:59.608Z,5.32
2022-09-12T16:01:30.617Z,5.07
2022-09-12T16:04:00.805Z,4.30
2022-09-12T16:06:37.177Z,6.43
2022-09-12T16:09:07.672Z,4.80
2022-09-12T16:11:37.631Z,4.70
2022-09-12T16:14:08.244Z,4.50
2022-09-12T16:16:37.861Z,4.53
2022-09-12T16:19:07.702Z,4.80
2022-09-12T16:21:40.219Z,4.32
2022-09-12T16:24:10.290Z,4.95
2022-09-12T16:26:40.063Z,5.20
2022-09-12T16:29:10.383Z,4.80
2022-09-12T16:31:40.193Z,4.68
2022-09-12T16:34:12.679Z,4.57
2022-09-12T16:36:45.382Z,4.22
2022-09-12T16:39:15.124Z,4.03
2022-09-12T16:41:45.522Z,4.93
2022-09-12T16:44:15.369Z,5.95
2022-09-12T16:46:45.437Z,4.93
2022-09-12T16:49:15.665Z,4.25
2022-09-12T16:51:49.252Z,4.43
2022-09-12T16:54:20.034Z,4.10
2022-09-12T16:56:50.146Z,3.85
2022-09-12T16:59:19.815Z,3.60
2022-09-12T17:01:50.101Z,4.30
2022-09-12T17:04:23.477Z,4.38
2022-09-12T17:06:57.543Z,4.30
2022-09-12T17:09:28.322Z,4.35
2022-09-12T17:11:58.951Z,4.00
2022-09-12T17:14:28.496Z,4.03
2022-09-12T17:16:58.158Z,4.28
2022-09-12T17:19:32.888Z,4.18
2022-09-12T17:22:05.085Z,4.20
2022-09-12T17:24:34.721Z,4.60
2022-09-12T17:27:04.410Z,3.80
2022-09-12T17:29:35.141Z,4.10
2022-09-12T17:32:05.383Z,4.07
2022-09-12T17:34:35.023Z,3.55
2022-09-12T17:37:07.299Z,3.90
2022-09-12T17:39:36.911Z,4.10
2022-09-12T17:42:08.288Z,3.80
2022-09-12T17:44:38.819Z,4.00
2022-09-12T17:47:08.689Z,4.07
2022-09-12T17:49:39.473Z,3.97
2022-09-12T17:52:12.055Z,3.60
2022-09-12T17:54:41.776Z,4.10
2022-09-12T17:57:11.577Z,4.38
2022-09-12T17:59:41.330Z,3.85
2022-09-12T18:02:16.621Z,4.20
2022-09-12T18:04:48.922Z,3.97
2022-09-12T18:07:22.494Z,3.97
2022-09-12T18:09:55.363Z,3.95
2022-09-12T18:12:27.142Z,4.25
2022-09-12T18:14:56.751Z,5.15
2022-09-12T18:17:27.509Z,4.75
2022-09-12T18:19:57.126Z,4.45
2022-09-12T18:22:29.398Z,3.92
2022-09-12T18:24:59.076Z,4.72
2022-09-12T18:27:28.720Z,4.53
2022-09-12T18:30:19.697Z,3.97
2022-09-12T18:32:48.182Z,4.22
2022-09-12T18:35:18.211Z,4.55
2022-09-12T18:37:50.595Z,4.68
2022-09-12T18:40:20.381Z,4.63
2022-09-12T18:42:50.103Z,4.07
2022-09-12T18:45:20.126Z,4.80
2022-09-12T18:47:49.836Z,4.38
2022-09-12T18:50:20.018Z,4.70
2022-09-12T18:52:57.868Z,4.82
2022-09-12T18:55:29.619Z,5.85
2022-09-12T18:57:59.390Z,5.15
2022-09-12T19:00:29.084Z,5.32
2022-09-12T19:02:58.759Z,5.00
2022-09-12T19:05:28.471Z,5.18
2022-09-12T19:08:01.902Z,4.88
2022-09-12T19:13:01.504Z,4.88
2022-09-12T19:15:33.364Z,5.38
2022-09-12T19:18:03.073Z,4.90
2022-09-12T19:20:35.335Z,5.28
2022-09-12T19:23:07.710Z,5.00
2022-09-12T19:25:37.608Z,5.13
2022-09-12T19:28:08.099Z,4.95
2022-09-12T19:30:41.765Z,5.20
2022-09-12T19:33:14.337Z,5.93
2022-09-12T19:35:44.100Z,6.07
2022-09-12T19:38:16.944Z,6.28
2022-09-12T19:40:47.098Z,5.68
2022-09-12T19:43:24.543Z,6.03
2022-09-12T19:45:54.896Z,6.43
2022-09-12T19:48:24.889Z,5.45
2022-09-12T19:50:55.015Z,5.63
2022-09-12T19:53:27.380Z,6.32
2022-09-12T19:56:02.311Z,6.15
2022-09-12T19:58:32.767Z,6.13
2022-09-12T20:01:12.034Z,5.15
2022-09-12T20:03:42.278Z,6.03
2022-09-12T20:06:13.745Z,5.38
2022-09-12T20:08:47.268Z,5.38
2022-09-12T20:11:19.631Z,5.85
2022-09-12T20:13:50.574Z,4.78
2022-09-12T20:16:23.381Z,5.68
2022-09-12T20:18:56.761Z,9.68
2022-09-12T20:21:31.775Z,7.75
2022-09-12T20:24:09.331Z,7.35
2022-09-12T20:26:39.781Z,7.10
2022-09-12T20:29:09.731Z,7.07
2022-09-12T20:31:41.232Z,6.00
2022-09-12T20:34:16.545Z,6.05
2022-09-12T20:36:47.173Z,5.95
2022-09-12T20:39:21.821Z,6.32
2022-09-12T20:41:51.909Z,6.25
2022-09-12T20:44:21.812Z,5.68
2022-09-12T20:46:51.588Z,5.68
2022-09-12T20:49:21.539Z,6.30
2022-09-12T20:51:51.424Z,5.43
2022-09-12T20:54:23.590Z,5.60
2022-09-12T20:56:53.303Z,6.10
2022-09-12T20:59:23.089Z,6.00
2022-09-12T21:01:52.769Z,6.10
2022-09-12T21:04:23.849Z,6.20
2022-09-12T21:06:53.605Z,6.15
2022-09-12T21:09:25.775Z,5.75
2022-09-12T21:11:55.606Z,6.22
2022-09-12T21:14:25.266Z,11.85
2022-09-12T21:16:54.788Z,8.82
2022-09-12T21:19:24.518Z,8.25
2022-09-12T21:21:54.260Z,6.63
2022-09-12T21:24:26.422Z,6.18
2022-09-12T21:26:57.420Z,6.78
2022-09-12T21:29:28.918Z,6.70
2022-09-12T21:31:58.553Z,6.63
2022-09-12T21:34:28.319Z,6.18
2022-09-12T21:36:57.928Z,6.85
2022-09-12T21:39:30.330Z,6.18
2022-09-12T21:42:00.144Z,6.70
2022-09-12T21:44:29.760Z,6.53
2022-09-12T21:46:59.498Z,6.15
2022-09-12T21:49:29.253Z,6.75
2022-09-12T21:51:58.829Z,6.20
2022-09-12T21:54:31.048Z,7.05
2022-09-12T21:57:00.649Z,5.93
2022-09-12T21:59:30.438Z,6.50
2022-09-12T22:02:00.499Z,5.70
2022-09-12T22:04:33.012Z,6.78
2022-09-12T22:07:02.634Z,5.97
2022-09-12T22:09:35.159Z,6.53
2022-09-12T22:12:05.375Z,6.57
2022-09-12T22:14:35.012Z,5.88
2022-09-12T22:17:05.407Z,6.40
2022-09-12T22:19:35.223Z,6.85
2022-09-12T22:22:17.409Z,6.63
2022-09-12T22:24:50.614Z,6.47
2022-09-12T22:27:20.221Z,6.05
2022-09-12T22:29:52.496Z,5.88
2022-09-12T22:32:25.254Z,6.45
2022-09-12T22:34:54.873Z,6.22
2022-09-12T22:37:24.545Z,6.43
2022-09-12T22:39:56.969Z,6.50
2022-09-12T22:42:26.768Z,7.18
2022-09-12T22:44:56.490Z,7.20
2022-09-12T22:47:27.121Z,6.07
2022-09-12T22:49:59.136Z,6.38
2022-09-12T22:52:28.808Z,6.80
2022-09-12T22:55:01.084Z,6.40
2022-09-12T22:57:30.791Z,5.75
2022-09-12T23:00:00.447Z,6.07
2022-09-12T23:02:30.043Z,6.50
2022-09-12T23:04:59.553Z,6.53
2022-09-12T23:07:29.239Z,6.28
2022-09-12T23:10:01.442Z,6.68
2022-09-12T23:12:31.984Z,6.38
2022-09-12T23:15:01.532Z,6.00
2022-09-12T23:17:31.337Z,6.32
2022-09-12T23:20:00.969Z,6.05
2022-09-12T23:22:30.606Z,6.07
2022-09-12T23:25:03.410Z,6.32
2022-09-12T23:27:32.985Z,6.57
2022-09-12T23:30:02.778Z,7.35
2022-09-12T23:32:32.429Z,6.22
2022-09-12T23:35:03.147Z,6.18
2022-09-12T23:37:32.787Z,6.47
2022-09-12T23:40:05.705Z,6.20
2022-09-12T23:42:35.309Z,6.65
2022-09-12T23:45:04.967Z,6.93
2022-09-12T23:47:34.581Z,6.65
2022-09-12T23:50:04.249Z,6.38
2022-09-12T23:52:34.190Z,6.43
2022-09-12T23:55:07.386Z,6.85
2022-09-12T23:57:36.922Z,5.82
